Airfield :







YOU CAN JOIN US ON...

 
LOGIN :

Register | Disclaimer

   EN    FR    IT 

 









Legend :    VFR   Marginal VFR   IFR   Intensive IFR   Very Intensive IFR
Visi :
Ceiling :
>= 8 km
>= 3000ft
5 to 8 km
1000 to 3000 ft
1500m to 5 km
500 to 1000 ft
800 to 1500m
200 to 500 ft
< 800m
< 200 ft
Symbols :   Thunderstorms  Fog  Heavy snow  Heavy precipitations  Wind > 20 kt






- Airport Elevation : 461 ft
- IATA code : YYT


CYYT - St John's Int

CURRENT METAR :
  • 241026Z 27016KT 15SM SCT018 BKN055 M01/M03 A3005 RMK SC3SC4 WND ESTD SLP185

EXPIRED METARs :
  • 241000Z 27016KT 15SM OVC013 M01/M02 A3004 RMK SC8 WND ESTD SLP182
  • 240900Z CCA 23016KT 15SM -SN OVC010 M01/M02 A3002 RMK SC8 WND ESTD SLP176
  • 240800Z 23016KT 15SM -SN OVC009 M01/M02 A3002 RMK SF8 WND ESTD SLP175

TAF AMD TAF CYYT
Valid from the 24 at 10:00 until the 25 at 06:00 UTC


241031Z 2410/2506 27015KT P6SM SCT020 BKN050
TEMPO 2410/2416 BKN030
FM241600 30010G20KT P6SM BKN030
TEMPO 2416/2420 BKN020
FM250000 34010KT P6SM SCT020 RMK NXT FCST BY 241200Z



MET'MAP, your aeronautical weather chart ! - Copyright ORBIFLY December 2007 - Disclaimer

ORBIFLY MET'MAP TEAM :

Programming & Development : Alexandra Zaïnal
Concept & original design : Baudouin d'Aumeries
Assistance for programming : Marc-Olivier Méhu
Technical & hardware support : Manuel Goepfert

Contact : metmap@orbifly.com




SOURCES & CREDITS :

   NOAA